Time;durP1;ratioP1;P1;durP2;ratioP2;P2;SDS_P1;SDS_P2;PMS_P1;PMS_P2;Temp;Humidity;BMP_temperature;BMP_pressure;BME280_temperature;BME280_humidity;BME280_pressure;Samples;Min_cycle;Max_cycle;Signal;HPM_P1;HPM_P2
2023/07/27 00:00:42;;;;;;;4.13;2.33;;;;;;;;;;4953921;29;20191;-68
2023/07/27 00:03:08;;;;;;;4.80;2.30;;;;;;;;;;4953477;29;20543;-69
2023/07/27 00:05:52;;;;;;;7.67;2.50;;;;;;;;;;4953767;29;20178;-68
2023/07/27 00:08:19;;;;;;;6.90;2.33;;;;;;;;;;4936483;29;20197;-68
2023/07/27 00:11:03;;;;;;;3.33;2.43;;;;;;;;;;4939006;29;20209;-69
2023/07/27 00:13:30;;;;;;;6.50;2.30;;;;;;;;;;4953681;29;20721;-68
2023/07/27 00:15:57;;;;;;;5.33;2.80;;;;;;;;;;4953614;29;20546;-68
2023/07/27 00:18:24;;;;;;;4.90;2.47;;;;;;;;;;4952648;28;20198;-68
2023/07/27 00:20:50;;;;;;;4.87;2.33;;;;;;;;;;4964981;28;20274;-68
2023/07/27 00:23:17;;;;;;;5.93;2.30;;;;;;;;;;4972643;28;20580;-69
2023/07/27 00:25:44;;;;;;;6.87;2.40;;;;;;;;;;4972791;28;20679;-68
2023/07/27 00:28:11;;;;;;;5.07;2.57;;;;;;;;;;4972676;28;20661;-69
2023/07/27 00:30:55;;;;;;;5.37;2.07;;;;;;;;;;4972436;28;20573;-68
2023/07/27 00:33:22;;;;;;;7.17;2.97;;;;;;;;;;4972492;28;20251;-68
2023/07/27 00:35:54;;;;;;;4.37;2.73;;;;;;;;;;4955245;28;20197;-68
2023/07/27 00:38:21;;;;;;;3.60;2.43;;;;;;;;;;4950857;28;20245;-69
2023/07/27 00:40:48;;;;;;;6.00;2.80;;;;;;;;;;4935922;29;20197;-68
2023/07/27 00:43:35;;;;;;;5.60;2.73;;;;;;;;;;4952988;29;20280;-68
2023/07/27 00:46:01;;;;;;;5.03;2.30;;;;;;;;;;4952839;29;20698;-68
2023/07/27 00:48:29;;;;;;;5.23;2.47;;;;;;;;;;4953111;29;20221;-68
2023/07/27 00:50:57;;;;;;;3.43;2.17;;;;;;;;;;4951524;29;20228;-68
2023/07/27 00:53:23;;;;;;;3.83;2.30;;;;;;;;;;4951931;29;20536;-68
2023/07/27 00:56:09;;;;;;;5.30;2.50;;;;;;;;;;4935867;28;20201;-69
2023/07/27 00:58:36;;;;;;;4.97;2.30;;;;;;;;;;4954745;28;20653;-68
2023/07/27 01:01:03;;;;;;;6.17;2.33;;;;;;;;;;4955167;28;20617;-69
2023/07/27 01:03:29;;;;;;;5.00;2.30;;;;;;;;;;4955052;28;20194;-69
2023/07/27 01:05:56;;;;;;;3.80;2.30;;;;;;;;;;4971969;28;20185;-68
2023/07/27 01:08:23;;;;;;;4.13;2.33;;;;;;;;;;4972271;28;20220;-68
2023/07/27 01:46:12;;;;;;;6.17;2.27;;;;;;;;;;4971416;28;20267;-69
2023/07/27 01:48:39;;;;;;;3.27;2.10;;;;;;;;;;4954400;28;20228;-69
2023/07/27 01:51:09;;;;;;;3.13;2.03;;;;;;;;;;4953002;28;20207;-68
2023/07/27 01:53:36;;;;;;;4.27;3.07;;;;;;;;;;4958244;28;20731;-68
2023/07/27 01:56:06;;;;;;;3.90;2.20;;;;;;;;;;4975253;28;20264;-69
2023/07/27 01:58:35;;;;;;;3.80;2.30;;;;;;;;;;4942191;28;20208;-69
2023/07/27 02:01:02;;;;;;;2.60;1.93;;;;;;;;;;4958005;28;20684;-69
2023/07/27 02:03:29;;;;;;;5.80;2.27;;;;;;;;;;4957971;28;20198;-68
2023/07/27 02:05:58;;;;;;;5.10;2.70;;;;;;;;;;4957879;28;20208;-68
2023/07/27 02:08:24;;;;;;;3.33;2.20;;;;;;;;;;4957804;28;20608;-68
2023/07/27 02:10:53;;;;;;;6.30;2.07;;;;;;;;;;4957715;28;20220;-69
2023/07/27 02:13:21;;;;;;;6.70;2.50;;;;;;;;;;4956460;28;20260;-69
2023/07/27 02:15:50;;;;;;;4.33;2.60;;;;;;;;;;4938375;29;20201;-69
2023/07/27 02:18:18;;;;;;;5.70;2.47;;;;;;;;;;4938503;29;20198;-69
2023/07/27 02:20:45;;;;;;;3.57;2.27;;;;;;;;;;4938698;29;20197;-69
2023/07/27 02:23:11;;;;;;;3.43;2.40;;;;;;;;;;4938728;29;20693;-69
2023/07/27 02:25:55;;;;;;;2.83;2.30;;;;;;;;;;4938210;29;20246;-69
2023/07/27 02:28:28;;;;;;;4.00;2.30;;;;;;;;;;4937860;28;20194;-70
2023/07/27 02:30:55;;;;;;;9.20;2.53;;;;;;;;;;4957080;28;20213;-69
2023/07/27 02:33:22;;;;;;;2.40;1.80;;;;;;;;;;4974750;28;20247;-69
2023/07/27 02:35:49;;;;;;;6.83;2.30;;;;;;;;;;4957231;28;20202;-69
2023/07/27 02:38:16;;;;;;;5.80;2.40;;;;;;;;;;4957283;28;20535;-69
2023/07/27 02:40:43;;;;;;;3.43;1.90;;;;;;;;;;4974691;28;20186;-68
2023/07/27 02:43:10;;;;;;;4.30;2.40;;;;;;;;;;4957219;28;20657;-68
2023/07/27 02:45:37;;;;;;;6.47;2.13;;;;;;;;;;4956908;28;20309;-68
2023/07/27 02:48:04;;;;;;;6.13;2.10;;;;;;;;;;4955893;28;20716;-68
2023/07/27 02:50:31;;;;;;;5.37;2.40;;;;;;;;;;4974404;28;20228;-68
2023/07/27 02:53:03;;;;;;;4.13;1.93;;;;;;;;;;4957028;28;20292;-68
2023/07/27 02:55:30;;;;;;;3.97;1.80;;;;;;;;;;4957211;28;20631;-69
2023/07/27 02:57:59;;;;;;;6.63;2.50;;;;;;;;;;4957008;28;20221;-69
2023/07/27 03:00:48;;;;;;;3.47;1.90;;;;;;;;;;4956532;28;20649;-69
2023/07/27 03:03:15;;;;;;;3.43;1.80;;;;;;;;;;4955023;28;20210;-69
2023/07/27 03:06:07;;;;;;;3.97;2.00;;;;;;;;;;4956977;28;20265;-68
2023/07/27 03:08:37;;;;;;;2.50;1.90;;;;;;;;;;4948508;28;20223;-67
2023/07/27 03:11:04;;;;;;;4.57;2.10;;;;;;;;;;4948834;29;20316;-68
2023/07/27 03:13:31;;;;;;;3.37;2.23;;;;;;;;;;4953908;28;20209;-68
2023/07/27 03:15:59;;;;;;;6.27;2.50;;;;;;;;;;4954118;28;20668;-68
2023/07/27 03:18:27;;;;;;;8.03;2.57;;;;;;;;;;4935838;29;20194;-67
2023/07/27 03:20:54;;;;;;;4.20;2.03;;;;;;;;;;4950865;29;20796;-67
2023/07/27 03:23:21;;;;;;;8.53;2.80;;;;;;;;;;4954863;28;20735;-68
2023/07/27 03:26:11;;;;;;;3.97;2.57;;;;;;;;;;4969902;28;20177;-69
2023/07/27 03:28:38;;;;;;;5.87;2.47;;;;;;;;;;4953853;28;20213;-69
2023/07/27 03:31:15;;;;;;;7.13;2.33;;;;;;;;;;4971604;28;20209;-67
2023/07/27 03:33:42;;;;;;;3.53;2.20;;;;;;;;;;4954196;28;20557;-68
2023/07/27 03:36:09;;;;;;;5.23;2.10;;;;;;;;;;4971602;28;20272;-68
2023/07/27 03:38:35;;;;;;;4.20;2.30;;;;;;;;;;4954225;28;20680;-68
2023/07/27 03:41:02;;;;;;;2.93;2.30;;;;;;;;;;4954761;28;20197;-68
2023/07/27 03:43:29;;;;;;;3.63;2.53;;;;;;;;;;4953929;28;20232;-68
2023/07/27 03:45:56;;;;;;;5.17;2.43;;;;;;;;;;4952488;28;20247;-71
2023/07/27 03:48:23;;;;;;;3.37;2.50;;;;;;;;;;4968460;28;20208;-68
2023/07/27 03:50:50;;;;;;;5.40;2.93;;;;;;;;;;4950731;28;20636;-69
2023/07/27 03:53:17;;;;;;;5.10;2.30;;;;;;;;;;4954325;28;20205;-68
2023/07/27 03:55:43;;;;;;;3.00;2.03;;;;;;;;;;4967175;28;20225;-68
2023/07/27 03:58:28;;;;;;;6.00;3.07;;;;;;;;;;4953574;28;20177;-68
2023/07/27 04:00:55;;;;;;;5.53;3.07;;;;;;;;;;4953514;28;20221;-68
2023/07/27 04:03:22;;;;;;;4.70;2.73;;;;;;;;;;4969371;28;20292;-68
2023/07/27 04:05:49;;;;;;;4.77;2.03;;;;;;;;;;4944215;28;20197;-68
2023/07/27 04:08:16;;;;;;;5.90;2.50;;;;;;;;;;4935786;28;20198;-68
2023/07/27 04:10:43;;;;;;;7.57;2.90;;;;;;;;;;4933633;28;20216;-68
2023/07/27 04:13:10;;;;;;;2.87;2.10;;;;;;;;;;4969475;28;20891;-68
2023/07/27 04:15:40;;;;;;;4.07;2.60;;;;;;;;;;4964497;28;20189;-68
2023/07/27 04:18:07;;;;;;;5.70;2.50;;;;;;;;;;4969551;28;20296;-68
2023/07/27 04:20:34;;;;;;;5.57;2.30;;;;;;;;;;4938811;28;20198;-69
2023/07/27 04:23:01;;;;;;;3.00;2.20;;;;;;;;;;4920583;28;20216;-68
2023/07/27 04:25:28;;;;;;;3.40;2.40;;;;;;;;;;4969883;28;20197;-67
2023/07/27 04:27:54;;;;;;;7.03;2.67;;;;;;;;;;4952828;28;20201;-67
2023/07/27 04:30:21;;;;;;;5.13;2.70;;;;;;;;;;4961932;28;20288;-67
2023/07/27 04:32:48;;;;;;;4.83;2.90;;;;;;;;;;4950322;28;20225;-67
2023/07/27 04:35:15;;;;;;;4.80;2.90;;;;;;;;;;4968686;28;20189;-67
2023/07/27 04:37:42;;;;;;;3.77;3.00;;;;;;;;;;4969043;28;20221;-67
2023/07/27 04:40:10;;;;;;;5.37;2.97;;;;;;;;;;4966272;28;20181;-66
2023/07/27 04:42:37;;;;;;;4.23;2.70;;;;;;;;;;4952481;28;20201;-67
2023/07/27 04:45:04;;;;;;;4.20;2.20;;;;;;;;;;4950692;28;20201;-67
2023/07/27 04:47:30;;;;;;;5.57;3.07;;;;;;;;;;4951829;28;20739;-68
2023/07/27 04:49:57;;;;;;;4.77;2.90;;;;;;;;;;4967300;28;20597;-68
2023/07/27 04:52:24;;;;;;;4.17;2.37;;;;;;;;;;4950956;28;20324;-69
2023/07/27 04:54:51;;;;;;;5.60;2.63;;;;;;;;;;4965941;28;20194;-68
2023/07/27 04:57:18;;;;;;;3.97;2.20;;;;;;;;;;4938972;28;20198;-69
2023/07/27 04:59:45;;;;;;;4.87;2.53;;;;;;;;;;4951917;28;20201;-67
2023/07/27 05:02:12;;;;;;;6.60;2.00;;;;;;;;;;4968073;28;20200;-68
2023/07/27 05:04:39;;;;;;;3.10;2.03;;;;;;;;;;4968676;28;20680;-68
2023/07/27 05:07:06;;;;;;;9.23;2.37;;;;;;;;;;4958424;28;20194;-69
2023/07/27 05:09:33;;;;;;;4.40;2.20;;;;;;;;;;4956824;28;20243;-70
2023/07/27 05:11:59;;;;;;;4.70;2.70;;;;;;;;;;4953129;28;20221;-68
2023/07/27 05:14:28;;;;;;;3.17;2.17;;;;;;;;;;4960828;28;20845;-68
2023/07/27 05:16:55;;;;;;;3.07;1.97;;;;;;;;;;4967960;28;20201;-67
2023/07/27 05:19:22;;;;;;;4.33;2.23;;;;;;;;;;4967130;28;20193;-66
2023/07/27 05:21:49;;;;;;;7.17;2.30;;;;;;;;;;4967606;28;20217;-67
2023/07/27 05:24:15;;;;;;;5.43;2.20;;;;;;;;;;4965381;28;20197;-66
2023/07/27 05:26:42;;;;;;;2.70;2.10;;;;;;;;;;4969322;28;20740;-66
2023/07/27 05:29:09;;;;;;;2.67;1.97;;;;;;;;;;4973463;28;20244;-66
2023/07/27 05:31:53;;;;;;;3.93;1.83;;;;;;;;;;4971761;28;21093;-67
2023/07/27 05:34:19;;;;;;;3.93;1.70;;;;;;;;;;4951105;28;20245;-67
2023/07/27 05:36:46;;;;;;;4.03;1.90;;;;;;;;;;4973302;28;20553;-69
2023/07/27 05:39:13;;;;;;;3.07;1.60;;;;;;;;;;4974553;28;20201;-69
2023/07/27 05:41:40;;;;;;;5.03;1.80;;;;;;;;;;4974882;28;20205;-70
2023/07/27 05:44:06;;;;;;;3.50;1.90;;;;;;;;;;4940630;28;20196;-69
2023/07/27 05:46:34;;;;;;;3.10;1.77;;;;;;;;;;4966576;28;20241;-69
2023/07/27 05:49:01;;;;;;;3.33;1.93;;;;;;;;;;4971551;28;20194;-68
2023/07/27 05:51:28;;;;;;;3.73;2.10;;;;;;;;;;4974304;28;20244;-68
2023/07/27 05:53:55;;;;;;;2.60;1.70;;;;;;;;;;4974473;28;20656;-68
2023/07/27 05:56:22;;;;;;;2.87;1.90;;;;;;;;;;4974521;28;20268;-68
2023/07/27 05:58:49;;;;;;;3.37;1.77;;;;;;;;;;4973817;28;20201;-68
2023/07/27 06:01:16;;;;;;;2.43;1.80;;;;;;;;;;4973932;28;20190;-68
2023/07/27 06:03:43;;;;;;;3.30;1.90;;;;;;;;;;4958418;28;20190;-69
2023/07/27 06:06:27;;;;;;;2.70;1.60;;;;;;;;;;4959796;28;20690;-68
2023/07/27 06:08:54;;;;;;;3.27;1.80;;;;;;;;;;4973375;28;20297;-68
2023/07/27 06:11:21;;;;;;;2.67;1.90;;;;;;;;;;4973874;28;20209;-69
2023/07/27 06:13:48;;;;;;;2.90;1.30;;;;;;;;;;4961232;28;20211;-68
2023/07/27 06:16:15;;;;;;;4.67;1.83;;;;;;;;;;4973171;28;20198;-69
2023/07/27 06:18:42;;;;;;;1.77;1.47;;;;;;;;;;4972880;28;20211;-68
2023/07/27 06:21:09;;;;;;;3.57;1.63;;;;;;;;;;4971987;28;20669;-69
2023/07/27 06:23:35;;;;;;;3.33;1.57;;;;;;;;;;4955421;28;20190;-68
2023/07/27 06:26:02;;;;;;;1.90;1.33;;;;;;;;;;4966412;28;20239;-68
2023/07/27 06:28:29;;;;;;;2.27;1.50;;;;;;;;;;4970229;28;20202;-68
2023/07/27 06:30:56;;;;;;;1.60;1.30;;;;;;;;;;4971376;28;20209;-68
2023/07/27 06:33:22;;;;;;;2.73;1.23;;;;;;;;;;4970924;28;20276;-68
2023/07/27 06:35:52;;;;;;;1.57;1.13;;;;;;;;;;4956970;28;20216;-67
2023/07/27 06:38:19;;;;;;;2.53;1.23;;;;;;;;;;4969792;28;20197;-68
2023/07/27 06:40:46;;;;;;;3.03;1.20;;;;;;;;;;4963941;28;20209;-67
2023/07/27 06:43:12;;;;;;;1.40;1.10;;;;;;;;;;4972239;28;20299;-68
2023/07/27 06:45:39;;;;;;;2.57;1.07;;;;;;;;;;4973255;28;20232;-68
2023/07/27 06:48:06;;;;;;;2.70;1.30;;;;;;;;;;4956518;28;20201;-67
2023/07/27 06:50:33;;;;;;;2.07;1.40;;;;;;;;;;4971719;28;20224;-68
2023/07/27 06:53:00;;;;;;;1.97;1.10;;;;;;;;;;4950959;28;20237;-68
2023/07/27 06:55:26;;;;;;;3.13;0.93;;;;;;;;;;4959173;28;20213;-68
2023/07/27 06:57:55;;;;;;;2.47;1.10;;;;;;;;;;4956235;28;20194;-69
2023/07/27 07:00:22;;;;;;;4.70;1.43;;;;;;;;;;4973202;28;20586;-68
2023/07/27 07:02:49;;;;;;;1.97;1.20;;;;;;;;;;4970155;28;21144;-70
2023/07/27 07:05:16;;;;;;;2.27;1.27;;;;;;;;;;4972501;28;20197;-69
2023/07/27 07:07:43;;;;;;;2.97;1.10;;;;;;;;;;4954717;28;20185;-68
2023/07/27 07:10:11;;;;;;;1.83;1.17;;;;;;;;;;4937724;28;20661;-69
2023/07/27 07:12:38;;;;;;;3.40;1.13;;;;;;;;;;4969515;28;20736;-68
2023/07/27 07:15:05;;;;;;;3.67;1.40;;;;;;;;;;4951841;28;20201;-69
2023/07/27 07:17:50;;;;;;;2.67;1.30;;;;;;;;;;4961533;28;20195;-70
2023/07/27 07:20:18;;;;;;;2.37;0.90;;;;;;;;;;4969913;28;20272;-71
2023/07/27 07:22:44;;;;;;;2.33;0.90;;;;;;;;;;4970088;28;20201;-74
2023/07/27 07:25:11;;;;;;;3.13;1.30;;;;;;;;;;4954622;28;20225;-73
2023/07/27 07:27:38;;;;;;;1.93;1.10;;;;;;;;;;4953012;28;20193;-73
2023/07/27 07:30:06;;;;;;;2.13;1.10;;;;;;;;;;4961038;28;20190;-72
2023/07/27 07:32:35;;;;;;;2.10;1.20;;;;;;;;;;4945756;29;20221;-74
2023/07/27 07:35:02;;;;;;;4.30;1.63;;;;;;;;;;4962503;28;20217;-73
2023/07/27 07:37:29;;;;;;;2.93;1.20;;;;;;;;;;4972446;28;20281;-72
2023/07/27 07:39:56;;;;;;;1.97;1.10;;;;;;;;;;4955323;28;20189;-72
2023/07/27 07:42:24;;;;;;;1.77;1.00;;;;;;;;;;4951958;28;20957;-72
2023/07/27 07:44:51;;;;;;;1.50;0.90;;;;;;;;;;4969957;28;21212;-72
2023/07/27 07:47:18;;;;;;;3.57;1.30;;;;;;;;;;4970486;28;20229;-72
2023/07/27 07:49:45;;;;;;;1.93;1.10;;;;;;;;;;4969184;28;20189;-71
2023/07/27 07:52:13;;;;;;;1.57;1.07;;;;;;;;;;4951225;28;20237;-72
2023/07/27 07:54:40;;;;;;;1.73;1.03;;;;;;;;;;4953548;28;20751;-72
2023/07/27 07:57:07;;;;;;;2.07;1.00;;;;;;;;;;4952775;28;20244;-72
2023/07/27 07:59:34;;;;;;;2.77;1.20;;;;;;;;;;4969522;28;20199;-73
2023/07/27 08:02:01;;;;;;;2.10;1.20;;;;;;;;;;4949369;28;20283;-73
2023/07/27 08:04:30;;;;;;;1.40;0.90;;;;;;;;;;4967813;28;20202;-72
2023/07/27 08:06:57;;;;;;;2.30;1.17;;;;;;;;;;4969772;28;20202;-73
2023/07/27 08:09:24;;;;;;;1.50;1.03;;;;;;;;;;4968986;28;20198;-72
2023/07/27 08:11:52;;;;;;;2.33;1.23;;;;;;;;;;4969668;28;21065;-73
2023/07/27 08:14:19;;;;;;;3.47;0.90;;;;;;;;;;4971366;28;20189;-73
2023/07/27 08:16:46;;;;;;;2.93;0.90;;;;;;;;;;4969356;28;20201;-72
2023/07/27 08:19:13;;;;;;;3.77;1.03;;;;;;;;;;4970865;28;20205;-72
2023/07/27 08:21:40;;;;;;;1.47;1.00;;;;;;;;;;4950957;29;21055;-73
2023/07/27 08:24:09;;;;;;;2.13;0.80;;;;;;;;;;4964031;28;20653;-73
2023/07/27 08:26:36;;;;;;;2.07;0.90;;;;;;;;;;4965973;28;20195;-72
2023/07/27 08:29:06;;;;;;;2.73;1.07;;;;;;;;;;4960724;28;20193;-73
2023/07/27 08:31:33;;;;;;;2.30;0.90;;;;;;;;;;4950486;29;20225;-73
2023/07/27 08:34:01;;;;;;;2.27;1.00;;;;;;;;;;4964041;28;20268;-72
2023/07/27 08:36:50;;;;;;;2.13;0.97;;;;;;;;;;4971014;28;20216;-73
2023/07/27 08:39:17;;;;;;;1.60;0.87;;;;;;;;;;4948660;29;20198;-72
2023/07/27 08:41:45;;;;;;;1.80;0.90;;;;;;;;;;4945412;28;20200;-72
2023/07/27 08:44:14;;;;;;;3.70;1.13;;;;;;;;;;4970719;28;20648;-72
2023/07/27 08:46:43;;;;;;;3.13;1.00;;;;;;;;;;4949524;29;20284;-73
2023/07/27 08:49:12;;;;;;;2.10;0.93;;;;;;;;;;4969982;28;20200;-73
2023/07/27 08:51:40;;;;;;;1.47;1.03;;;;;;;;;;4933063;28;20190;-73
2023/07/27 08:54:07;;;;;;;3.80;1.40;;;;;;;;;;4970435;28;20185;-73
2023/07/27 08:56:34;;;;;;;2.87;0.87;;;;;;;;;;4968461;28;20271;-73
2023/07/27 08:59:01;;;;;;;1.23;0.93;;;;;;;;;;4970230;28;20192;-72
2023/07/27 09:01:28;;;;;;;1.77;1.10;;;;;;;;;;4949831;28;20189;-73
2023/07/27 09:03:57;;;;;;;2.00;1.20;;;;;;;;;;4954838;28;20238;-73
2023/07/27 09:06:39;;;;;;;2.00;1.00;;;;;;;;;;4970347;28;20205;-72
2023/07/27 09:09:17;;;;;;;2.00;0.77;;;;;;;;;;4947566;28;20185;-72
2023/07/27 09:11:44;;;;;;;2.43;1.00;;;;;;;;;;4947228;28;20232;-72
2023/07/27 09:14:13;;;;;;;1.60;1.03;;;;;;;;;;4936073;28;20292;-72
2023/07/27 09:16:41;;;;;;;4.13;0.90;;;;;;;;;;4968409;28;20300;-72
2023/07/27 09:19:07;;;;;;;1.90;0.90;;;;;;;;;;4970898;28;20249;-72
2023/07/27 09:21:41;;;;;;;1.77;1.00;;;;;;;;;;4967847;28;20206;-72
2023/07/27 09:24:11;;;;;;;1.70;0.87;;;;;;;;;;4970533;28;20197;-72
2023/07/27 09:26:45;;;;;;;2.07;1.07;;;;;;;;;;4951132;28;20280;-73
2023/07/27 09:29:13;;;;;;;2.77;1.13;;;;;;;;;;4969554;28;20205;-72
2023/07/27 09:31:43;;;;;;;2.33;0.97;;;;;;;;;;4969921;28;20194;-72
2023/07/27 09:34:10;;;;;;;2.23;0.90;;;;;;;;;;4968149;28;20220;-70
2023/07/27 09:36:37;;;;;;;1.63;0.73;;;;;;;;;;4970262;28;20182;-71
2023/07/27 09:39:22;;;;;;;2.10;0.80;;;;;;;;;;4951769;28;20236;-70
2023/07/27 09:41:49;;;;;;;2.13;0.90;;;;;;;;;;4969138;28;20186;-71
2023/07/27 09:44:17;;;;;;;1.13;0.87;;;;;;;;;;4952005;28;20194;-71
2023/07/27 09:46:47;;;;;;;1.50;0.83;;;;;;;;;;4951101;28;20230;-71
2023/07/27 09:49:14;;;;;;;2.83;0.73;;;;;;;;;;4953426;28;20193;-70
2023/07/27 09:51:59;;;;;;;1.70;0.90;;;;;;;;;;4925660;28;20188;-70
2023/07/27 09:54:26;;;;;;;1.90;0.90;;;;;;;;;;4950662;28;20196;-71
2023/07/27 09:56:57;;;;;;;1.60;0.80;;;;;;;;;;4949960;28;20201;-70
2023/07/27 09:59:23;;;;;;;1.30;0.70;;;;;;;;;;4952155;28;20202;-71
2023/07/27 10:01:52;;;;;;;1.37;0.90;;;;;;;;;;4961655;28;20226;-71
2023/07/27 10:04:19;;;;;;;2.40;1.10;;;;;;;;;;4969293;28;20716;-70
2023/07/27 10:06:46;;;;;;;1.57;0.83;;;;;;;;;;4951260;28;20198;-70
2023/07/27 10:09:18;;;;;;;1.20;0.90;;;;;;;;;;4927609;28;20202;-70
2023/07/27 10:11:51;;;;;;;2.10;0.77;;;;;;;;;;4969716;28;20194;-68
2023/07/27 10:14:19;;;;;;;1.83;0.70;;;;;;;;;;4970372;28;20708;-69
2023/07/27 10:17:06;;;;;;;0.80;0.70;;;;;;;;;;4973437;28;20188;-68
2023/07/27 10:19:44;;;;;;;1.50;0.83;;;;;;;;;;4955939;28;20213;-67
2023/07/27 10:22:16;;;;;;;1.00;0.77;;;;;;;;;;4938431;28;20866;-68
2023/07/27 10:24:52;;;;;;;3.30;1.00;;;;;;;;;;4967890;28;20206;-68
2023/07/27 10:27:20;;;;;;;1.63;0.83;;;;;;;;;;4973505;28;20197;-67
2023/07/27 10:29:54;;;;;;;2.80;0.80;;;;;;;;;;4970216;28;20267;-68
2023/07/27 10:32:22;;;;;;;1.73;0.80;;;;;;;;;;4951903;28;20211;-68
2023/07/27 10:34:54;;;;;;;1.63;0.83;;;;;;;;;;4973678;28;20217;-67
2023/07/27 10:37:21;;;;;;;1.33;0.80;;;;;;;;;;4952723;28;20201;-68
2023/07/27 10:39:51;;;;;;;1.60;0.90;;;;;;;;;;4955916;28;20661;-65
2023/07/27 10:42:19;;;;;;;1.33;0.90;;;;;;;;;;4972219;28;20252;-64
2023/07/27 10:44:47;;;;;;;1.23;0.80;;;;;;;;;;4954138;28;20194;-65
2023/07/27 10:47:15;;;;;;;2.40;0.90;;;;;;;;;;4969003;28;20276;-64
2023/07/27 10:49:45;;;;;;;1.30;0.87;;;;;;;;;;4971475;28;20221;-66
2023/07/27 10:52:16;;;;;;;1.50;0.60;;;;;;;;;;4965955;28;20208;-64
2023/07/27 10:54:43;;;;;;;1.47;1.10;;;;;;;;;;4949989;28;20197;-64
2023/07/27 10:57:11;;;;;;;1.50;0.77;;;;;;;;;;4962393;28;20284;-64
2023/07/27 10:59:39;;;;;;;1.80;1.00;;;;;;;;;;4970037;28;20194;-65
2023/07/27 11:02:09;;;;;;;2.60;0.70;;;;;;;;;;4953267;28;20325;-65
2023/07/27 11:04:36;;;;;;;2.80;0.80;;;;;;;;;;4972772;28;20217;-64
2023/07/27 11:07:03;;;;;;;1.00;0.73;;;;;;;;;;4971841;28;20185;-65
2023/07/27 11:09:30;;;;;;;1.97;0.70;;;;;;;;;;4971467;28;20855;-65
2023/07/27 11:12:02;;;;;;;2.17;0.67;;;;;;;;;;4972227;28;20221;-65
2023/07/27 11:14:30;;;;;;;1.83;0.90;;;;;;;;;;4960913;28;20428;-64
2023/07/27 11:16:56;;;;;;;2.70;0.77;;;;;;;;;;4972356;28;20193;-65
2023/07/27 11:19:24;;;;;;;0.97;0.70;;;;;;;;;;4969064;28;20193;-64
2023/07/27 11:21:51;;;;;;;2.20;1.10;;;;;;;;;;4938535;28;20204;-65
2023/07/27 11:24:18;;;;;;;1.13;0.80;;;;;;;;;;4971503;28;20220;-65
2023/07/27 11:26:47;;;;;;;1.00;0.60;;;;;;;;;;4948633;28;20204;-68
2023/07/27 11:29:14;;;;;;;1.30;0.90;;;;;;;;;;4969258;28;20243;-66
2023/07/27 11:31:50;;;;;;;1.33;0.80;;;;;;;;;;4946456;28;20267;-66
2023/07/27 11:34:23;;;;;;;1.93;0.60;;;;;;;;;;4964813;28;20228;-65
2023/07/27 11:36:52;;;;;;;1.07;0.80;;;;;;;;;;4969574;28;20249;-67
2023/07/27 11:39:40;;;;;;;1.23;0.80;;;;;;;;;;4952365;28;20552;-66
2023/07/27 11:42:10;;;;;;;1.63;0.80;;;;;;;;;;4969724;28;20188;-65
2023/07/27 11:44:38;;;;;;;0.90;0.77;;;;;;;;;;4972185;28;20192;-66
2023/07/27 11:47:06;;;;;;;2.90;1.07;;;;;;;;;;4935412;29;20245;-65
2023/07/27 11:49:33;;;;;;;1.20;0.90;;;;;;;;;;4957781;28;20283;-65
2023/07/27 11:52:00;;;;;;;0.80;0.80;;;;;;;;;;4954562;28;20211;-65
2023/07/27 11:54:27;;;;;;;1.97;0.70;;;;;;;;;;4954311;28;20276;-65
2023/07/27 11:56:54;;;;;;;2.13;1.37;;;;;;;;;;4970741;28;20196;-66
2023/07/27 11:59:21;;;;;;;1.27;0.70;;;;;;;;;;4967632;28;20206;-65
2023/07/27 12:01:49;;;;;;;1.40;0.70;;;;;;;;;;4966693;28;20562;-66
2023/07/27 12:04:16;;;;;;;1.87;0.80;;;;;;;;;;4953711;28;20216;-66
2023/07/27 12:07:01;;;;;;;1.63;0.70;;;;;;;;;;4950805;28;20707;-66
2023/07/27 12:09:28;;;;;;;1.47;0.80;;;;;;;;;;4966243;28;20197;-65
2023/07/27 12:12:12;;;;;;;2.07;0.63;;;;;;;;;;4971131;28;20186;-65
2023/07/27 12:14:40;;;;;;;0.90;0.70;;;;;;;;;;4971296;28;20210;-66
2023/07/27 12:17:10;;;;;;;3.13;1.27;;;;;;;;;;4971641;28;20269;-66
2023/07/27 12:19:40;;;;;;;2.07;0.87;;;;;;;;;;4971174;28;20193;-66
2023/07/27 12:22:27;;;;;;;1.00;0.70;;;;;;;;;;4952195;29;20197;-66
2023/07/27 12:24:57;;;;;;;1.20;0.80;;;;;;;;;;4967330;28;20280;-65
2023/07/27 12:27:44;;;;;;;2.27;1.17;;;;;;;;;;4970633;28;20707;-66
2023/07/27 12:30:11;;;;;;;1.70;0.97;;;;;;;;;;4971157;28;20196;-66
2023/07/27 12:32:41;;;;;;;0.87;0.60;;;;;;;;;;4953431;28;20195;-66
2023/07/27 12:35:08;;;;;;;2.10;0.90;;;;;;;;;;4969541;28;20193;-66
2023/07/27 12:37:38;;;;;;;1.17;0.73;;;;;;;;;;4965955;28;20185;-68
2023/07/27 12:40:05;;;;;;;3.53;0.90;;;;;;;;;;4963868;28;20202;-66
2023/07/27 12:42:35;;;;;;;1.10;0.80;;;;;;;;;;4966323;28;20255;-65
2023/07/27 12:45:02;;;;;;;0.90;0.80;;;;;;;;;;4968633;28;20598;-66
2023/07/27 12:47:29;;;;;;;1.23;0.90;;;;;;;;;;4967337;28;20287;-67
2023/07/27 12:49:56;;;;;;;2.40;0.80;;;;;;;;;;4968157;28;20284;-66
2023/07/27 12:52:23;;;;;;;1.57;0.80;;;;;;;;;;4968829;28;20895;-66
2023/07/27 12:54:50;;;;;;;0.93;0.80;;;;;;;;;;4964083;28;20319;-66
2023/07/27 12:57:16;;;;;;;0.80;0.80;;;;;;;;;;4968261;28;20192;-66
2023/07/27 12:59:43;;;;;;;0.77;0.63;;;;;;;;;;4968531;28;21069;-65
2023/07/27 13:02:10;;;;;;;0.90;0.80;;;;;;;;;;4969250;28;20197;-66
2023/07/27 13:04:36;;;;;;;2.10;0.90;;;;;;;;;;4969053;28;20185;-65
2023/07/27 13:07:07;;;;;;;1.73;1.10;;;;;;;;;;4968667;28;20686;-68
2023/07/27 13:09:33;;;;;;;1.97;0.80;;;;;;;;;;4968904;28;20553;-68
2023/07/27 13:12:00;;;;;;;1.80;0.90;;;;;;;;;;4968674;28;20196;-69
2023/07/27 13:14:27;;;;;;;1.57;0.80;;;;;;;;;;4969051;28;20577;-68
2023/07/27 13:16:54;;;;;;;1.33;0.90;;;;;;;;;;4966869;28;20205;-68
2023/07/27 13:19:22;;;;;;;4.30;0.97;;;;;;;;;;4968452;28;20190;-68
2023/07/27 13:22:06;;;;;;;1.20;0.90;;;;;;;;;;4968693;28;20177;-67
2023/07/27 13:24:33;;;;;;;2.83;1.10;;;;;;;;;;4951656;28;20720;-71
2023/07/27 13:27:18;;;;;;;2.60;1.10;;;;;;;;;;4967795;28;20188;-69
2023/07/27 13:29:44;;;;;;;1.10;0.90;;;;;;;;;;4968330;28;20193;-70
2023/07/27 13:32:11;;;;;;;1.43;1.10;;;;;;;;;;4968916;28;20256;-69
2023/07/27 13:34:38;;;;;;;2.33;1.10;;;;;;;;;;4968418;28;20232;-69
2023/07/27 13:37:06;;;;;;;1.30;1.00;;;;;;;;;;4968718;28;20199;-66
2023/07/27 13:39:50;;;;;;;2.50;1.20;;;;;;;;;;4968559;28;20284;-68
2023/07/27 13:42:17;;;;;;;1.53;1.13;;;;;;;;;;4968512;28;20280;-68
2023/07/27 13:44:45;;;;;;;1.40;0.80;;;;;;;;;;4968016;28;20198;-67
2023/07/27 13:47:12;;;;;;;1.73;0.90;;;;;;;;;;4968953;28;20229;-68
2023/07/27 13:49:40;;;;;;;2.13;1.00;;;;;;;;;;4972360;28;20260;-67
2023/07/27 13:52:07;;;;;;;1.13;0.90;;;;;;;;;;4972410;28;20196;-67
2023/07/27 13:54:34;;;;;;;1.17;0.70;;;;;;;;;;4967566;28;20228;-67
2023/07/27 13:57:00;;;;;;;1.47;0.80;;;;;;;;;;4968037;28;20323;-67
2023/07/27 13:59:27;;;;;;;2.20;1.07;;;;;;;;;;4970578;28;20665;-68
2023/07/27 14:01:56;;;;;;;2.47;1.00;;;;;;;;;;4968742;28;20189;-67
2023/07/27 14:04:25;;;;;;;1.00;0.70;;;;;;;;;;4970935;28;20850;-68
2023/07/27 14:06:52;;;;;;;2.57;0.80;;;;;;;;;;4966543;28;20200;-68
2023/07/27 14:09:19;;;;;;;1.50;1.00;;;;;;;;;;4968403;28;20194;-67
2023/07/27 14:11:46;;;;;;;1.00;0.87;;;;;;;;;;4968925;28;20197;-69
2023/07/27 14:14:14;;;;;;;1.40;0.90;;;;;;;;;;4973467;28;20227;-68
2023/07/27 14:16:45;;;;;;;1.30;0.80;;;;;;;;;;4954958;28;20228;-67
2023/07/27 14:19:12;;;;;;;1.70;1.00;;;;;;;;;;4971532;28;20281;-67
2023/07/27 14:21:57;;;;;;;1.03;0.83;;;;;;;;;;4971025;28;20188;-67
2023/07/27 14:24:23;;;;;;;1.00;0.90;;;;;;;;;;4951513;28;20652;-68
2023/07/27 14:26:51;;;;;;;1.50;1.10;;;;;;;;;;4950477;28;20601;-67
2023/07/27 14:29:21;;;;;;;2.20;1.10;;;;;;;;;;4971411;28;20533;-67
2023/07/27 14:31:52;;;;;;;2.00;1.17;;;;;;;;;;4971841;28;20182;-67
2023/07/27 14:34:19;;;;;;;2.10;1.10;;;;;;;;;;4970016;28;20221;-67
2023/07/27 14:36:48;;;;;;;1.87;1.27;;;;;;;;;;4970576;28;20569;-66
2023/07/27 14:39:15;;;;;;;2.97;1.17;;;;;;;;;;4969937;28;20264;-67
2023/07/27 14:41:45;;;;;;;1.87;1.00;;;;;;;;;;4964883;28;20244;-67
2023/07/27 14:44:12;;;;;;;1.57;1.00;;;;;;;;;;4953258;28;20637;-66
2023/07/27 14:46:39;;;;;;;2.37;1.27;;;;;;;;;;4967610;28;20629;-65
2023/07/27 14:49:06;;;;;;;3.37;1.40;;;;;;;;;;4969544;28;20208;-66
2023/07/27 14:51:33;;;;;;;3.33;1.30;;;;;;;;;;4969021;28;20552;-66
2023/07/27 14:54:00;;;;;;;2.30;1.50;;;;;;;;;;4968100;28;20243;-65
2023/07/27 14:56:27;;;;;;;1.70;1.23;;;;;;;;;;4967887;28;20280;-66
2023/07/27 14:58:54;;;;;;;1.80;1.27;;;;;;;;;;4968131;28;20208;-67
2023/07/27 15:01:32;;;;;;;2.30;1.50;;;;;;;;;;4951028;28;20211;-66
2023/07/27 15:04:17;;;;;;;2.40;1.20;;;;;;;;;;4970000;28;20272;-66
2023/07/27 15:06:46;;;;;;;1.83;1.20;;;;;;;;;;4969496;28;20205;-67
2023/07/27 15:09:13;;;;;;;3.77;1.60;;;;;;;;;;4950951;28;20214;-66
2023/07/27 15:11:40;;;;;;;2.80;1.20;;;;;;;;;;4969687;28;20217;-65
2023/07/27 15:14:07;;;;;;;1.83;1.20;;;;;;;;;;4970404;28;20232;-66
2023/07/27 15:16:34;;;;;;;1.40;0.97;;;;;;;;;;4968156;28;20545;-66
2023/07/27 15:19:01;;;;;;;1.67;1.17;;;;;;;;;;4970324;28;20284;-66
2023/07/27 15:21:28;;;;;;;1.50;1.20;;;;;;;;;;4968996;28;20185;-66
2023/07/27 15:23:55;;;;;;;1.50;1.20;;;;;;;;;;4969799;28;20193;-68
2023/07/27 15:26:23;;;;;;;1.47;1.07;;;;;;;;;;4968874;28;20201;-66
2023/07/27 15:28:50;;;;;;;3.20;1.10;;;;;;;;;;4970341;28;20601;-66